Atwood, California
Current Conditions -  °F | °C
As of 1:53 PM on Monday 20 Oct 2014 (Local Time) from KFUL Reporting Station
Clear Clear  
Wind Chill: 78°   Ceiling: Unl
Heat Index: 79°   Visibility: 10mi
Dew Point: 59°   Wind: 6mph
Humidity: 52%   Direction: 150°SSE
Pressure: 29.88"   Gusts: NA
Location:  33.87°N, 117.83°W
Report Text: KFUL 202053Z 15005KT 10SM CLR 26/15 A2988 RMK AO2 SLP115 T02560150 58019
Loading
Personal Weather Stations






























Interactive Weather Map
Tropical Storm Tracking
New forecast layout! Learn more

10-Day Weather Forecast

Advertisements
Track Severe Weather on mobile